sensor_id;sensor_type;location;lat;lon;timestamp;pressure;altitude;pressure_sealevel;temperature;humidity
51239;BME280;38154;47.548;18.828;2023-03-04T00:02:01;98839.22;;;0.40;100.00
51239;BME280;38154;47.548;18.828;2023-03-04T00:04:27;98832.31;;;0.59;97.32
51239;BME280;38154;47.548;18.828;2023-03-04T00:06:53;98827.69;;;0.71;94.63
51239;BME280;38154;47.548;18.828;2023-03-04T00:09:20;98829.81;;;0.81;91.81
51239;BME280;38154;47.548;18.828;2023-03-04T00:11:46;98836.16;;;0.89;90.91
51239;BME280;38154;47.548;18.828;2023-03-04T00:14:12;98834.56;;;0.93;91.73
51239;BME280;38154;47.548;18.828;2023-03-04T00:16:37;98835.87;;;0.83;91.00
51239;BME280;38154;47.548;18.828;2023-03-04T00:19:03;98834.81;;;0.78;91.62
51239;BME280;38154;47.548;18.828;2023-03-04T00:21:29;98830.81;;;0.85;90.72
51239;BME280;38154;47.548;18.828;2023-03-04T00:23:55;98840.97;;;0.82;90.03
51239;BME280;38154;47.548;18.828;2023-03-04T00:26:21;98835.59;;;0.76;91.31
51239;BME280;38154;47.548;18.828;2023-03-04T00:28:47;98832.69;;;0.68;91.42
51239;BME280;38154;47.548;18.828;2023-03-04T00:31:13;98836.53;;;0.78;88.29
51239;BME280;38154;47.548;18.828;2023-03-04T00:33:39;98831.12;;;0.71;87.77
51239;BME280;38154;47.548;18.828;2023-03-04T00:36:05;98826.50;;;0.63;89.91
51239;BME280;38154;47.548;18.828;2023-03-04T00:38:31;98829.50;;;0.73;86.42
51239;BME280;38154;47.548;18.828;2023-03-04T00:40:57;98832.06;;;0.73;87.00
51239;BME280;38154;47.548;18.828;2023-03-04T00:43:23;98832.38;;;0.60;86.92
51239;BME280;38154;47.548;18.828;2023-03-04T00:45:49;98838.47;;;0.83;83.28
51239;BME280;38154;47.548;18.828;2023-03-04T00:48:15;98826.69;;;0.88;83.20
51239;BME280;38154;47.548;18.828;2023-03-04T00:50:42;98830.19;;;1.11;79.82
51239;BME280;38154;47.548;18.828;2023-03-04T00:53:09;98825.56;;;1.25;79.75
51239;BME280;38154;47.548;18.828;2023-03-04T00:55:35;98819.03;;;1.34;78.08
51239;BME280;38154;47.548;18.828;2023-03-04T00:58:02;98820.75;;;1.33;77.04
51239;BME280;38154;47.548;18.828;2023-03-04T01:00:28;98817.38;;;1.34;77.62
51239;BME280;38154;47.548;18.828;2023-03-04T01:02:53;98815.66;;;1.35;78.26
51239;BME280;38154;47.548;18.828;2023-03-04T01:05:20;98816.06;;;1.23;79.80
51239;BME280;38154;47.548;18.828;2023-03-04T01:07:46;98809.03;;;1.19;78.19
51239;BME280;38154;47.548;18.828;2023-03-04T01:10:13;98812.00;;;1.07;77.99
51239;BME280;38154;47.548;18.828;2023-03-04T01:12:40;98805.81;;;1.02;79.32
51239;BME280;38154;47.548;18.828;2023-03-04T01:15:07;98809.50;;;1.08;77.42
51239;BME280;38154;47.548;18.828;2023-03-04T01:17:34;98807.06;;;1.11;77.42
51239;BME280;38154;47.548;18.828;2023-03-04T01:20:00;98811.47;;;1.14;76.05
51239;BME280;38154;47.548;18.828;2023-03-04T01:22:26;98802.00;;;1.13;76.28
51239;BME280;38154;47.548;18.828;2023-03-04T01:24:52;98799.53;;;1.16;76.25
51239;BME280;38154;47.548;18.828;2023-03-04T01:27:18;98798.25;;;1.05;77.12
51239;BME280;38154;47.548;18.828;2023-03-04T01:29:44;98798.00;;;0.99;76.22
51239;BME280;38154;47.548;18.828;2023-03-04T01:32:10;98799.56;;;0.95;77.88
51239;BME280;38154;47.548;18.828;2023-03-04T01:34:35;98792.84;;;0.99;76.50
51239;BME280;38154;47.548;18.828;2023-03-04T01:37:01;98791.94;;;0.97;75.54
51239;BME280;38154;47.548;18.828;2023-03-04T01:39:27;98789.56;;;1.01;76.35
51239;BME280;38154;47.548;18.828;2023-03-04T01:41:53;98785.81;;;0.93;75.23
51239;BME280;38154;47.548;18.828;2023-03-04T01:44:19;98784.88;;;0.91;75.86
51239;BME280;38154;47.548;18.828;2023-03-04T01:46:48;98787.63;;;0.96;75.03
51239;BME280;38154;47.548;18.828;2023-03-04T01:49:15;98782.97;;;0.87;76.03
51239;BME280;38154;47.548;18.828;2023-03-04T01:51:52;98782.25;;;0.89;75.41
51239;BME280;38154;47.548;18.828;2023-03-04T01:54:20;98774.09;;;1.00;73.72
51239;BME280;38154;47.548;18.828;2023-03-04T01:56:47;98777.69;;;1.05;74.29
51239;BME280;38154;47.548;18.828;2023-03-04T02:01:46;98768.94;;;1.00;74.17
51239;BME280;38154;47.548;18.828;2023-03-04T02:04:13;98772.44;;;1.02;73.89
51239;BME280;38154;47.548;18.828;2023-03-04T02:06:41;98760.13;;;0.93;74.09
51239;BME280;38154;47.548;18.828;2023-03-04T02:09:07;98757.44;;;0.90;75.12
51239;BME280;38154;47.548;18.828;2023-03-04T02:11:33;98764.22;;;0.88;73.79
51239;BME280;38154;47.548;18.828;2023-03-04T02:14:00;98756.25;;;0.82;73.46
51239;BME280;38154;47.548;18.828;2023-03-04T02:16:26;98762.22;;;0.81;73.04
51239;BME280;38154;47.548;18.828;2023-03-04T02:18:53;98753.63;;;0.80;74.60
51239;BME280;38154;47.548;18.828;2023-03-04T02:21:25;98760.97;;;0.71;74.70
51239;BME280;38154;47.548;18.828;2023-03-04T02:24:09;98762.53;;;0.67;74.72
51239;BME280;38154;47.548;18.828;2023-03-04T02:26:36;98760.06;;;0.69;76.34
51239;BME280;38154;47.548;18.828;2023-03-04T02:29:06;98755.72;;;0.68;75.22
51239;BME280;38154;47.548;18.828;2023-03-04T02:31:34;98754.66;;;0.63;75.25
51239;BME280;38154;47.548;18.828;2023-03-04T02:34:12;98748.97;;;0.49;77.18
51239;BME280;38154;47.548;18.828;2023-03-04T02:36:40;98748.31;;;0.33;78.36
51239;BME280;38154;47.548;18.828;2023-03-04T02:41:48;98742.69;;;0.21;78.45
51239;BME280;38154;47.548;18.828;2023-03-04T02:44:20;98730.25;;;0.09;79.45
51239;BME280;38154;47.548;18.828;2023-03-04T02:46:46;98733.03;;;-0.06;80.77
51239;BME280;38154;47.548;18.828;2023-03-04T02:49:12;98732.53;;;-0.18;81.89
51239;BME280;38154;47.548;18.828;2023-03-04T02:51:38;98733.03;;;-0.06;81.03
51239;BME280;38154;47.548;18.828;2023-03-04T02:54:14;98725.41;;;-0.04;81.06
51239;BME280;38154;47.548;18.828;2023-03-04T02:56:44;98728.63;;;0.11;79.14
51239;BME280;38154;47.548;18.828;2023-03-04T02:59:11;98727.06;;;0.15;79.18
51239;BME280;38154;47.548;18.828;2023-03-04T03:01:36;98721.81;;;0.12;79.50
51239;BME280;38154;47.548;18.828;2023-03-04T03:04:02;98733.00;;;0.14;80.75
51239;BME280;38154;47.548;18.828;2023-03-04T03:06:28;98728.81;;;0.16;79.92
51239;BME280;38154;47.548;18.828;2023-03-04T03:08:54;98736.84;;;0.24;79.88
51239;BME280;38154;47.548;18.828;2023-03-04T03:11:20;98735.00;;;0.21;80.01
51239;BME280;38154;47.548;18.828;2023-03-04T03:13:46;98722.94;;;0.18;81.45
51239;BME280;38154;47.548;18.828;2023-03-04T03:16:12;98722.31;;;0.24;82.25
51239;BME280;38154;47.548;18.828;2023-03-04T03:18:38;98720.25;;;0.15;83.74
51239;BME280;38154;47.548;18.828;2023-03-04T03:21:04;98720.37;;;0.18;83.08
51239;BME280;38154;47.548;18.828;2023-03-04T03:23:29;98718.16;;;0.07;84.44
51239;BME280;38154;47.548;18.828;2023-03-04T03:25:55;98721.41;;;0.03;85.72
51239;BME280;38154;47.548;18.828;2023-03-04T03:28:21;98711.72;;;-0.05;87.00
51239;BME280;38154;47.548;18.828;2023-03-04T03:30:47;98718.28;;;-0.11;88.06
51239;BME280;38154;47.548;18.828;2023-03-04T03:33:13;98713.87;;;-0.14;88.32
51239;BME280;38154;47.548;18.828;2023-03-04T03:35:39;98713.97;;;-0.32;89.57
51239;BME280;38154;47.548;18.828;2023-03-04T03:38:05;98712.44;;;-0.28;89.30
51239;BME280;38154;47.548;18.828;2023-03-04T03:40:31;98716.59;;;-0.30;90.26
51239;BME280;38154;47.548;18.828;2023-03-04T03:42:57;98718.50;;;-0.26;90.17
51239;BME280;38154;47.548;18.828;2023-03-04T03:45:23;98714.53;;;-0.39;91.94
51239;BME280;38154;47.548;18.828;2023-03-04T03:47:48;98713.87;;;-0.35;91.71
51239;BME280;38154;47.548;18.828;2023-03-04T03:50:15;98715.59;;;-0.34;92.95
51239;BME280;38154;47.548;18.828;2023-03-04T03:52:41;98706.34;;;-0.30;92.84
51239;BME280;38154;47.548;18.828;2023-03-04T03:55:07;98714.38;;;-0.23;92.65
51239;BME280;38154;47.548;18.828;2023-03-04T03:57:33;98704.06;;;-0.24;92.94
51239;BME280;38154;47.548;18.828;2023-03-04T03:59:59;98706.19;;;-0.35;94.26
51239;BME280;38154;47.548;18.828;2023-03-04T04:02:25;98712.53;;;-0.25;93.52
51239;BME280;38154;47.548;18.828;2023-03-04T04:04:51;98705.91;;;-0.22;94.83
51239;BME280;38154;47.548;18.828;2023-03-04T04:07:17;98705.06;;;-0.21;94.53
51239;BME280;38154;47.548;18.828;2023-03-04T04:09:44;98707.91;;;-0.34;95.83
51239;BME280;38154;47.548;18.828;2023-03-04T04:12:12;98702.06;;;-0.31;96.30
51239;BME280;38154;47.548;18.828;2023-03-04T04:14:39;98705.69;;;-0.26;96.77
51239;BME280;38154;47.548;18.828;2023-03-04T04:17:05;98696.22;;;-0.48;97.75
51239;BME280;38154;47.548;18.828;2023-03-04T04:19:31;98701.84;;;-0.36;98.07
51239;BME280;38154;47.548;18.828;2023-03-04T04:21:57;98701.56;;;-0.42;99.54
51239;BME280;38154;47.548;18.828;2023-03-04T04:24:23;98700.06;;;-0.39;98.67
51239;BME280;38154;47.548;18.828;2023-03-04T04:26:49;98696.44;;;-0.42;99.97
51239;BME280;38154;47.548;18.828;2023-03-04T04:29:15;98700.16;;;-0.35;99.83
51239;BME280;38154;47.548;18.828;2023-03-04T04:31:41;98694.50;;;-0.28;99.95
51239;BME280;38154;47.548;18.828;2023-03-04T04:34:07;98695.38;;;-0.28;100.00
51239;BME280;38154;47.548;18.828;2023-03-04T04:36:33;98696.38;;;-0.24;100.00
51239;BME280;38154;47.548;18.828;2023-03-04T04:38:59;98693.16;;;-0.20;100.00
51239;BME280;38154;47.548;18.828;2023-03-04T04:41:28;98689.37;;;-0.28;100.00
51239;BME280;38154;47.548;18.828;2023-03-04T04:43:54;98679.00;;;-0.31;100.00
51239;BME280;38154;47.548;18.828;2023-03-04T04:46:20;98685.00;;;-0.31;100.00
51239;BME280;38154;47.548;18.828;2023-03-04T04:48:46;98680.66;;;-0.32;100.00
51239;BME280;38154;47.548;18.828;2023-03-04T04:51:12;98676.50;;;-0.30;100.00
51239;BME280;38154;47.548;18.828;2023-03-04T04:53:38;98679.19;;;-0.27;100.00
51239;BME280;38154;47.548;18.828;2023-03-04T04:56:17;98676.75;;;-0.24;100.00
51239;BME280;38154;47.548;18.828;2023-03-04T04:58:44;98681.63;;;-0.30;100.00
51239;BME280;38154;47.548;18.828;2023-03-04T05:01:10;98682.34;;;-0.32;100.00
51239;BME280;38154;47.548;18.828;2023-03-04T05:03:36;98679.59;;;-0.37;100.00
51239;BME280;38154;47.548;18.828;2023-03-04T05:06:04;98680.22;;;-0.43;100.00
51239;BME280;38154;47.548;18.828;2023-03-04T05:08:30;98675.87;;;-0.44;100.00
51239;BME280;38154;47.548;18.828;2023-03-04T05:10:56;98675.09;;;-0.43;100.00
51239;BME280;38154;47.548;18.828;2023-03-04T05:13:22;98680.84;;;-0.48;100.00
51239;BME280;38154;47.548;18.828;2023-03-04T05:15:52;98672.19;;;-0.50;100.00
51239;BME280;38154;47.548;18.828;2023-03-04T05:18:20;98672.25;;;-0.49;100.00
51239;BME280;38154;47.548;18.828;2023-03-04T05:20:56;98665.47;;;-0.48;100.00
51239;BME280;38154;47.548;18.828;2023-03-04T05:23:23;98667.28;;;-0.46;100.00
51239;BME280;38154;47.548;18.828;2023-03-04T05:25:49;98669.91;;;-0.44;100.00
51239;BME280;38154;47.548;18.828;2023-03-04T05:28:15;98674.37;;;-0.40;100.00
51239;BME280;38154;47.548;18.828;2023-03-04T05:30:43;98670.03;;;-0.41;100.00
51239;BME280;38154;47.548;18.828;2023-03-04T05:33:10;98678.94;;;-0.33;100.00
51239;BME280;38154;47.548;18.828;2023-03-04T05:35:37;98669.94;;;-0.23;100.00
51239;BME280;38154;47.548;18.828;2023-03-04T05:38:04;98679.31;;;-0.24;100.00
51239;BME280;38154;47.548;18.828;2023-03-04T05:40:31;98670.81;;;-0.23;100.00
51239;BME280;38154;47.548;18.828;2023-03-04T05:42:57;98680.38;;;-0.19;100.00
51239;BME280;38154;47.548;18.828;2023-03-04T05:45:24;98682.13;;;-0.17;100.00
51239;BME280;38154;47.548;18.828;2023-03-04T05:47:51;98676.94;;;-0.19;100.00
51239;BME280;38154;47.548;18.828;2023-03-04T05:50:17;98683.28;;;-0.11;100.00
51239;BME280;38154;47.548;18.828;2023-03-04T05:52:43;98681.78;;;-0.06;100.00
51239;BME280;38154;47.548;18.828;2023-03-04T05:55:09;98682.28;;;0.07;100.00
51239;BME280;38154;47.548;18.828;2023-03-04T05:57:35;98683.66;;;0.20;100.00
51239;BME280;38154;47.548;18.828;2023-03-04T06:00:02;98684.91;;;0.29;100.00
51239;BME280;38154;47.548;18.828;2023-03-04T06:02:30;98681.84;;;0.38;100.00
51239;BME280;38154;47.548;18.828;2023-03-04T06:04:56;98684.84;;;0.49;100.00
51239;BME280;38154;47.548;18.828;2023-03-04T06:07:22;98678.53;;;0.41;100.00
51239;BME280;38154;47.548;18.828;2023-03-04T06:09:47;98687.63;;;0.55;100.00
51239;BME280;38154;47.548;18.828;2023-03-04T06:12:13;98693.09;;;0.63;100.00
51239;BME280;38154;47.548;18.828;2023-03-04T06:14:39;98697.09;;;0.79;100.00
51239;BME280;38154;47.548;18.828;2023-03-04T06:17:05;98698.22;;;0.85;100.00
51239;BME280;38154;47.548;18.828;2023-03-04T06:19:31;98697.66;;;0.92;100.00
51239;BME280;38154;47.548;18.828;2023-03-04T06:21:57;98695.47;;;1.03;100.00
51239;BME280;38154;47.548;18.828;2023-03-04T06:24:23;98706.16;;;1.14;100.00
51239;BME280;38154;47.548;18.828;2023-03-04T06:26:48;98705.16;;;1.33;100.00
51239;BME280;38154;47.548;18.828;2023-03-04T06:29:15;98713.53;;;1.52;100.00
51239;BME280;38154;47.548;18.828;2023-03-04T06:31:41;98712.66;;;1.51;100.00
51239;BME280;38154;47.548;18.828;2023-03-04T06:34:08;98718.41;;;1.68;99.33
51239;BME280;38154;47.548;18.828;2023-03-04T06:36:34;98715.91;;;1.95;97.93
51239;BME280;38154;47.548;18.828;2023-03-04T06:39:04;98720.25;;;2.22;95.58
51239;BME280;38154;47.548;18.828;2023-03-04T06:41:30;98719.03;;;2.38;94.28
51239;BME280;38154;47.548;18.828;2023-03-04T06:43:56;98719.41;;;2.49;93.53
51239;BME280;38154;47.548;18.828;2023-03-04T06:46:22;98716.84;;;2.49;93.00
51239;BME280;38154;47.548;18.828;2023-03-04T06:48:48;98717.59;;;2.46;93.64
51239;BME280;38154;47.548;18.828;2023-03-04T06:51:14;98708.16;;;3.01;93.02
51239;BME280;38154;47.548;18.828;2023-03-04T06:53:40;98709.31;;;5.11;78.04
51239;BME280;38154;47.548;18.828;2023-03-04T06:56:08;98711.75;;;6.36;71.39
51239;BME280;38154;47.548;18.828;2023-03-04T06:58:35;98713.47;;;8.31;63.21
51239;BME280;38154;47.548;18.828;2023-03-04T07:01:30;98712.72;;;9.98;54.59
51239;BME280;38154;47.548;18.828;2023-03-04T07:03:56;98711.91;;;11.24;49.64
51239;BME280;38154;47.548;18.828;2023-03-04T07:06:25;98716.03;;;11.90;47.84
51239;BME280;38154;47.548;18.828;2023-03-04T07:08:51;98720.81;;;12.64;45.26
51239;BME280;38154;47.548;18.828;2023-03-04T07:11:18;98713.78;;;12.72;44.09
51239;BME280;38154;47.548;18.828;2023-03-04T07:13:44;98714.84;;;13.44;41.93
51239;BME280;38154;47.548;18.828;2023-03-04T07:16:13;98713.59;;;13.76;40.95
51239;BME280;38154;47.548;18.828;2023-03-04T07:18:40;98717.28;;;14.28;40.21
51239;BME280;38154;47.548;18.828;2023-03-04T07:21:06;98713.31;;;14.61;39.30
51239;BME280;38154;47.548;18.828;2023-03-04T07:23:35;98712.44;;;14.59;38.75
51239;BME280;38154;47.548;18.828;2023-03-04T07:26:01;98722.06;;;14.59;38.51
51239;BME280;38154;47.548;18.828;2023-03-04T07:28:27;98718.44;;;14.66;38.97
51239;BME280;38154;47.548;18.828;2023-03-04T07:30:53;98715.06;;;15.11;37.78
51239;BME280;38154;47.548;18.828;2023-03-04T07:33:19;98721.34;;;15.03;37.67
51239;BME280;38154;47.548;18.828;2023-03-04T07:35:45;98723.97;;;15.50;37.66
51239;BME280;38154;47.548;18.828;2023-03-04T07:38:11;98724.34;;;15.79;36.65
51239;BME280;38154;47.548;18.828;2023-03-04T07:40:37;98727.84;;;16.18;35.87
51239;BME280;38154;47.548;18.828;2023-03-04T07:43:03;98725.63;;;16.00;35.78
51239;BME280;38154;47.548;18.828;2023-03-04T07:45:29;98717.91;;;16.68;35.33
51239;BME280;38154;47.548;18.828;2023-03-04T07:47:57;98723.38;;;16.61;34.48
51239;BME280;38154;47.548;18.828;2023-03-04T07:50:23;98716.56;;;16.50;34.85
51239;BME280;38154;47.548;18.828;2023-03-04T07:52:49;98723.13;;;16.70;35.18
51239;BME280;38154;47.548;18.828;2023-03-04T07:55:16;98723.66;;;17.20;33.48
51239;BME280;38154;47.548;18.828;2023-03-04T07:57:44;98730.03;;;18.07;32.48
51239;BME280;38154;47.548;18.828;2023-03-04T08:00:12;98729.09;;;17.47;32.86
51239;BME280;38154;47.548;18.828;2023-03-04T08:02:38;98730.09;;;17.09;33.99
51239;BME280;38154;47.548;18.828;2023-03-04T08:05:05;98735.44;;;17.05;33.25
51239;BME280;38154;47.548;18.828;2023-03-04T08:07:31;98734.31;;;17.49;33.82
51239;BME280;38154;47.548;18.828;2023-03-04T08:09:57;98733.28;;;17.54;32.86
51239;BME280;38154;47.548;18.828;2023-03-04T08:12:23;98741.69;;;17.69;32.45
51239;BME280;38154;47.548;18.828;2023-03-04T08:14:50;98744.13;;;18.06;32.66
51239;BME280;38154;47.548;18.828;2023-03-04T08:17:16;98737.81;;;17.80;32.71
51239;BME280;38154;47.548;18.828;2023-03-04T08:19:43;98742.44;;;18.05;32.31
51239;BME280;38154;47.548;18.828;2023-03-04T08:22:09;98735.09;;;18.15;31.66
51239;BME280;38154;47.548;18.828;2023-03-04T08:24:34;98739.41;;;18.74;31.55
51239;BME280;38154;47.548;18.828;2023-03-04T08:27:00;98736.41;;;18.86;30.47
51239;BME280;38154;47.548;18.828;2023-03-04T08:29:26;98734.31;;;18.96;29.95
51239;BME280;38154;47.548;18.828;2023-03-04T08:31:53;98739.62;;;18.40;30.85
51239;BME280;38154;47.548;18.828;2023-03-04T08:34:22;98734.50;;;19.17;30.26
51239;BME280;38154;47.548;18.828;2023-03-04T08:36:48;98744.03;;;18.96;29.69
51239;BME280;38154;47.548;18.828;2023-03-04T08:39:15;98739.84;;;18.88;30.23
51239;BME280;38154;47.548;18.828;2023-03-04T08:41:42;98740.81;;;19.13;29.30
51239;BME280;38154;47.548;18.828;2023-03-04T08:44:08;98733.25;;;19.27;28.79
51239;BME280;38154;47.548;18.828;2023-03-04T08:46:39;98722.22;;;19.41;29.19
51239;BME280;38154;47.548;18.828;2023-03-04T08:49:06;98716.88;;;19.17;28.47
51239;BME280;38154;47.548;18.828;2023-03-04T08:51:32;98707.31;;;19.38;29.74
51239;BME280;38154;47.548;18.828;2023-03-04T08:54:04;98721.03;;;19.50;28.15
51239;BME280;38154;47.548;18.828;2023-03-04T08:56:30;98716.88;;;19.17;29.16
51239;BME280;38154;47.548;18.828;2023-03-04T08:58:56;98712.25;;;18.70;28.99
51239;BME280;38154;47.548;18.828;2023-03-04T09:01:23;98705.69;;;18.56;29.21
51239;BME280;38154;47.548;18.828;2023-03-04T09:03:49;98704.28;;;18.99;28.35
51239;BME280;38154;47.548;18.828;2023-03-04T09:06:15;98701.81;;;19.44;27.57
51239;BME280;38154;47.548;18.828;2023-03-04T09:08:43;98707.66;;;18.76;29.18
51239;BME280;38154;47.548;18.828;2023-03-04T09:11:09;98702.38;;;18.49;28.74
51239;BME280;38154;47.548;18.828;2023-03-04T09:13:35;98699.47;;;18.57;28.66
51239;BME280;38154;47.548;18.828;2023-03-04T09:16:02;98698.28;;;18.67;29.23
51239;BME280;38154;47.548;18.828;2023-03-04T09:18:28;98704.81;;;19.08;28.18
51239;BME280;38154;47.548;18.828;2023-03-04T09:20:54;98704.22;;;19.00;28.60
51239;BME280;38154;47.548;18.828;2023-03-04T09:23:20;98704.91;;;18.52;28.45
51239;BME280;38154;47.548;18.828;2023-03-04T09:25:47;98702.31;;;19.31;27.75
51239;BME280;38154;47.548;18.828;2023-03-04T09:28:15;98701.19;;;18.86;28.04
51239;BME280;38154;47.548;18.828;2023-03-04T09:30:41;98705.25;;;19.21;28.81
51239;BME280;38154;47.548;18.828;2023-03-04T09:33:08;98692.03;;;19.46;28.62
51239;BME280;38154;47.548;18.828;2023-03-04T09:35:34;98710.59;;;18.66;28.67
51239;BME280;38154;47.548;18.828;2023-03-04T09:38:00;98704.06;;;19.05;28.92
51239;BME280;38154;47.548;18.828;2023-03-04T09:40:46;98703.88;;;19.11;28.34
51239;BME280;38154;47.548;18.828;2023-03-04T09:43:24;98698.53;;;19.13;28.29
51239;BME280;38154;47.548;18.828;2023-03-04T09:45:57;98693.56;;;18.22;29.84
51239;BME280;38154;47.548;18.828;2023-03-04T09:48:27;98685.56;;;18.23;30.58
51239;BME280;38154;47.548;18.828;2023-03-04T09:51:11;98684.41;;;18.60;30.13
51239;BME280;38154;47.548;18.828;2023-03-04T09:53:52;98690.47;;;18.90;29.10
51239;BME280;38154;47.548;18.828;2023-03-04T09:56:24;98680.91;;;19.37;29.67
51239;BME280;38154;47.548;18.828;2023-03-04T09:58:56;98685.16;;;19.66;28.68
51239;BME280;38154;47.548;18.828;2023-03-04T10:01:51;98679.69;;;19.22;29.16
51239;BME280;38154;47.548;18.828;2023-03-04T10:06:47;98676.97;;;18.16;29.98
51239;BME280;38154;47.548;18.828;2023-03-04T10:11:53;98672.09;;;18.59;29.42
51239;BME280;38154;47.548;18.828;2023-03-04T10:14:30;98673.38;;;17.91;30.20
51239;BME280;38154;47.548;18.828;2023-03-04T10:17:17;98662.41;;;17.75;30.82
51239;BME280;38154;47.548;18.828;2023-03-04T10:19:52;98667.53;;;18.09;30.46
51239;BME280;38154;47.548;18.828;2023-03-04T10:22:25;98659.94;;;17.37;31.26
51239;BME280;38154;47.548;18.828;2023-03-04T10:24:56;98653.63;;;16.77;32.20
51239;BME280;38154;47.548;18.828;2023-03-04T10:27:22;98656.78;;;17.86;31.56
51239;BME280;38154;47.548;18.828;2023-03-04T10:29:50;98650.31;;;17.97;31.20
51239;BME280;38154;47.548;18.828;2023-03-04T10:32:19;98656.03;;;17.51;31.71
51239;BME280;38154;47.548;18.828;2023-03-04T10:34:45;98651.25;;;17.65;31.99
51239;BME280;38154;47.548;18.828;2023-03-04T10:37:11;98648.31;;;17.74;31.27
51239;BME280;38154;47.548;18.828;2023-03-04T10:39:40;98645.94;;;18.25;31.00
51239;BME280;38154;47.548;18.828;2023-03-04T10:44:42;98638.53;;;17.78;31.95
51239;BME280;38154;47.548;18.828;2023-03-04T10:47:10;98638.19;;;17.60;31.90
51239;BME280;38154;47.548;18.828;2023-03-04T10:49:53;98642.06;;;17.49;31.91
51239;BME280;38154;47.548;18.828;2023-03-04T10:52:31;98634.78;;;17.25;31.22
51239;BME280;38154;47.548;18.828;2023-03-04T10:55:02;98631.81;;;17.06;33.14
51239;BME280;38154;47.548;18.828;2023-03-04T10:57:34;98631.38;;;17.22;31.89
51239;BME280;38154;47.548;18.828;2023-03-04T11:00:24;98627.78;;;17.26;31.20
51239;BME280;38154;47.548;18.828;2023-03-04T11:02:48;98618.38;;;17.47;31.96
51239;BME280;38154;47.548;18.828;2023-03-04T11:07:48;98613.56;;;17.91;30.74
51239;BME280;38154;47.548;18.828;2023-03-04T11:10:21;98611.75;;;18.22;30.11
51239;BME280;38154;47.548;18.828;2023-03-04T11:15:25;98611.66;;;17.96;30.65
51239;BME280;38154;47.548;18.828;2023-03-04T11:18:05;98599.88;;;17.78;30.32
51239;BME280;38154;47.548;18.828;2023-03-04T11:20:46;98605.66;;;17.61;30.19
51239;BME280;38154;47.548;18.828;2023-03-04T11:23:16;98596.97;;;16.97;30.95
51239;BME280;38154;47.548;18.828;2023-03-04T11:26:18;98602.09;;;17.01;31.25
51239;BME280;38154;47.548;18.828;2023-03-04T11:28:51;98597.13;;;17.22;31.27
51239;BME280;38154;47.548;18.828;2023-03-04T11:31:22;98580.75;;;17.42;30.88
51239;BME280;38154;47.548;18.828;2023-03-04T11:33:57;98584.06;;;17.49;31.35
51239;BME280;38154;47.548;18.828;2023-03-04T11:36:33;98585.44;;;16.32;31.39
51239;BME280;38154;47.548;18.828;2023-03-04T11:39:02;98582.66;;;16.04;33.54
51239;BME280;38154;47.548;18.828;2023-03-04T11:41:32;98573.69;;;16.45;32.35
51239;BME280;38154;47.548;18.828;2023-03-04T11:44:01;98571.97;;;16.10;32.49
51239;BME280;38154;47.548;18.828;2023-03-04T12:05:42;98545.91;;;16.35;33.53
51239;BME280;38154;47.548;18.828;2023-03-04T12:11:09;98531.66;;;16.09;33.47
51239;BME280;38154;47.548;18.828;2023-03-04T12:16:42;98527.63;;;15.94;33.62
51239;BME280;38154;47.548;18.828;2023-03-04T12:19:32;98515.16;;;16.03;34.04
51239;BME280;38154;47.548;18.828;2023-03-04T12:27:59;98503.34;;;15.46;34.04
51239;BME280;38154;47.548;18.828;2023-03-04T12:32:57;98499.44;;;15.23;35.37
51239;BME280;38154;47.548;18.828;2023-03-04T12:38:11;98499.16;;;14.03;37.42
51239;BME280;38154;47.548;18.828;2023-03-04T12:52:15;98472.19;;;11.88;43.13
51239;BME280;38154;47.548;18.828;2023-03-04T12:54:49;98473.16;;;11.76;42.11
51239;BME280;38154;47.548;18.828;2023-03-04T12:57:18;98461.09;;;11.61;42.14
51239;BME280;38154;47.548;18.828;2023-03-04T13:02:58;98448.22;;;11.40;43.44
51239;BME280;38154;47.548;18.828;2023-03-04T13:08:25;98454.22;;;11.49;43.57
51239;BME280;38154;47.548;18.828;2023-03-04T13:11:00;98444.72;;;11.36;43.50
51239;BME280;38154;47.548;18.828;2023-03-04T13:13:36;98435.28;;;11.21;42.63
51239;BME280;38154;47.548;18.828;2023-03-04T13:16:14;98441.47;;;11.06;42.52
51239;BME280;38154;47.548;18.828;2023-03-04T13:18:51;98424.88;;;11.17;42.08
51239;BME280;38154;47.548;18.828;2023-03-04T13:23:47;98424.16;;;10.96;41.13
51239;BME280;38154;47.548;18.828;2023-03-04T13:26:19;98419.81;;;10.92;40.49
51239;BME280;38154;47.548;18.828;2023-03-04T13:28:51;98421.66;;;10.77;39.70
51239;BME280;38154;47.548;18.828;2023-03-04T13:31:21;98419.97;;;10.61;39.46
51239;BME280;38154;47.548;18.828;2023-03-04T13:33:52;98416.47;;;10.68;39.38
51239;BME280;38154;47.548;18.828;2023-03-04T13:41:48;98410.41;;;10.60;37.81
51239;BME280;38154;47.548;18.828;2023-03-04T13:47:14;98411.34;;;10.42;37.50
51239;BME280;38154;47.548;18.828;2023-03-04T13:49:41;98414.88;;;10.33;38.10
51239;BME280;38154;47.548;18.828;2023-03-04T13:52:39;98414.88;;;10.24;38.06
51239;BME280;38154;47.548;18.828;2023-03-04T13:55:32;98408.81;;;10.16;37.47
51239;BME280;38154;47.548;18.828;2023-03-04T13:57:59;98403.62;;;10.05;37.89
51239;BME280;38154;47.548;18.828;2023-03-04T14:00:25;98402.78;;;10.05;38.59
51239;BME280;38154;47.548;18.828;2023-03-04T14:02:51;98395.81;;;10.07;38.57
51239;BME280;38154;47.548;18.828;2023-03-04T14:05:17;98398.44;;;10.00;39.05
51239;BME280;38154;47.548;18.828;2023-03-04T14:07:43;98399.31;;;10.02;39.50
51239;BME280;38154;47.548;18.828;2023-03-04T14:12:59;98398.41;;;10.03;39.60
51239;BME280;38154;47.548;18.828;2023-03-04T14:15:27;98386.28;;;9.89;38.41
51239;BME280;38154;47.548;18.828;2023-03-04T14:17:58;98391.53;;;9.79;39.96
51239;BME280;38154;47.548;18.828;2023-03-04T14:20:28;98383.72;;;9.73;41.17
51239;BME280;38154;47.548;18.828;2023-03-04T14:22:56;98394.16;;;9.65;41.24
51239;BME280;38154;47.548;18.828;2023-03-04T14:25:34;98391.56;;;9.56;40.50